Terminal Aerodrome Forecast
Issued by NWS

Home | Current Version | Previous Version | Text Only | Print | Product List | Glossary On
Versions: 1 2 3 4 5 6 7 8 9 10 11 12 13 14 15
000
FTUS43 KDTX 181723
TAFYIP
TAF
KYIP 181723Z 1818/1918 26014G24KT P6SM BKN045
     FM190100 26008KT P6SM SCT050 SCT250
     FM190900 23005KT P6SM OVC040 PROB30 1911/1915 6SM -SHRA OVC025=

USA.gov is the U.S. government's official web portal to all federal, state and local government web resources and services.